Time;durP1;ratioP1;P1;durP2;ratioP2;P2;SDS_P1;SDS_P2;PMS_P1;PMS_P2;Temp;Humidity;BMP_temperature;BMP_pressure;BME280_temperature;BME280_humidity;BME280_pressure;Samples;Min_cycle;Max_cycle;Signal;HPM_P1;HPM_P2
2021/10/01 00:02:17;;;;;;;7.07;3.13;;;;;;;5.60;84.04;101674.09;5004265;28;20093;-75
2021/10/01 00:04:42;;;;;;;4.88;2.70;;;;;;;5.64;83.96;101681.22;5004014;28;20041;-75
2021/10/01 00:07:09;;;;;;;8.00;3.05;;;;;;;5.66;84.17;101676.94;5003587;28;20110;-76
2021/10/01 00:09:35;;;;;;;5.55;2.90;;;;;;;5.69;83.81;101668.28;5004681;28;20095;-76
2021/10/01 00:12:00;;;;;;;6.50;3.25;;;;;;;5.68;83.96;101670.00;5003256;28;20038;-76
2021/10/01 00:14:27;;;;;;;6.07;2.88;;;;;;;5.67;84.05;101673.47;5005072;28;20060;-75
2021/10/01 00:16:54;;;;;;;4.10;2.60;;;;;;;5.69;84.18;101666.56;5002474;28;20066;-76
2021/10/01 00:19:21;;;;;;;5.25;2.83;;;;;;;5.75;84.41;101659.72;5005453;28;20081;-76
2021/10/01 00:21:46;;;;;;;4.18;2.60;;;;;;;5.78;83.96;101665.06;5002072;28;20034;-76
2021/10/01 00:24:12;;;;;;;5.50;3.17;;;;;;;5.79;83.85;101658.97;5005327;28;20045;-76
2021/10/01 00:26:40;;;;;;;5.53;3.22;;;;;;;5.82;83.99;101659.97;5002145;28;20085;-76
2021/10/01 00:29:07;;;;;;;8.88;3.78;;;;;;;5.88;83.86;101661.88;5005285;28;20455;-76
2021/10/01 00:31:33;;;;;;;6.70;3.28;;;;;;;5.87;83.91;101657.50;5033878;28;20035;-76
2021/10/01 00:34:01;;;;;;;6.15;3.50;;;;;;;5.79;84.29;101648.50;5016481;28;20092;-76
2021/10/01 00:36:27;;;;;;;5.38;3.00;;;;;;;5.80;83.49;101645.03;5003974;28;20041;-76
2021/10/01 00:38:52;;;;;;;7.50;2.95;;;;;;;5.81;83.79;101646.81;5004039;28;20034;-76
2021/10/01 00:41:18;;;;;;;5.55;3.40;;;;;;;5.82;83.67;101646.00;5003403;28;20447;-76
2021/10/01 00:43:43;;;;;;;5.85;3.58;;;;;;;5.82;83.99;101648.63;5041671;28;20496;-76
2021/10/01 00:46:09;;;;;;;5.43;3.67;;;;;;;5.84;83.76;101644.28;5006279;28;20038;-76
2021/10/01 00:48:35;;;;;;;7.72;3.70;;;;;;;5.82;83.56;101641.63;5015003;28;20712;-76
2021/10/01 00:51:00;;;;;;;5.68;3.40;;;;;;;5.80;83.55;101642.44;5008536;28;20065;-76
2021/10/01 00:53:26;;;;;;;6.65;3.65;;;;;;;5.76;83.65;101637.91;5005994;28;20088;-76
2021/10/01 00:55:52;;;;;;;4.78;2.60;;;;;;;5.68;84.13;101632.44;5003223;28;20496;-77
2021/10/01 00:58:17;;;;;;;7.13;3.20;;;;;;;5.68;83.92;101627.19;5013289;28;20112;-75
2021/10/01 01:03:27;;;;;;;5.88;3.30;;;;;;;5.68;83.61;101628.09;5003003;28;20057;-76
2021/10/01 01:06:12;;;;;;;6.13;3.10;;;;;;;5.66;83.70;101621.94;5001746;28;20492;-76
2021/10/01 01:08:56;;;;;;;4.50;2.90;;;;;;;5.59;84.16;101621.69;4999661;28;20382;-76
2021/10/01 01:11:59;;;;;;;7.20;3.17;;;;;;;5.54;84.04;101618.91;5008046;28;20026;-76
2021/10/01 01:14:49;;;;;;;6.43;4.10;;;;;;;5.49;84.34;101617.88;5002225;28;20411;-76
2021/10/01 01:17:33;;;;;;;4.50;2.97;;;;;;;5.49;84.12;101617.88;5018059;28;20038;-76
2021/10/01 01:20:19;;;;;;;5.15;3.40;;;;;;;5.48;83.94;101616.13;5016097;28;20065;-76
2021/10/01 01:22:49;;;;;;;7.20;3.78;;;;;;;5.47;84.34;101611.69;5009275;28;20038;-76
2021/10/01 01:25:43;;;;;;;5.93;3.60;;;;;;;5.39;83.93;101610.56;5001730;28;20498;-76
2021/10/01 01:28:29;;;;;;;4.95;3.10;;;;;;;5.37;83.73;101610.53;5001796;28;20041;-75
2021/10/01 01:31:04;;;;;;;6.78;3.60;;;;;;;5.37;83.72;101607.91;5016365;28;20065;-75
2021/10/01 01:33:33;;;;;;;7.80;3.30;;;;;;;5.38;84.07;101603.56;5001271;28;20083;-75
2021/10/01 01:36:01;;;;;;;8.25;3.42;;;;;;;5.39;84.13;101611.44;5014301;28;20030;-75
2021/10/01 01:38:36;;;;;;;5.45;3.15;;;;;;;5.39;83.57;101606.22;5034538;28;20030;-75
2021/10/01 01:41:04;;;;;;;6.22;3.20;;;;;;;5.39;83.86;101605.34;5000048;28;20034;-75
2021/10/01 01:43:31;;;;;;;5.57;2.78;;;;;;;5.36;84.05;101598.28;5034574;28;20116;-75
2021/10/01 01:45:57;;;;;;;5.07;2.70;;;;;;;5.34;83.78;101604.28;5000241;28;20064;-75
2021/10/01 01:48:23;;;;;;;6.22;2.70;;;;;;;5.35;84.10;101601.75;5001864;28;20030;-76
2021/10/01 01:50:49;;;;;;;6.00;3.10;;;;;;;5.32;84.42;101595.50;5000855;28;20026;-75
2021/10/01 01:53:16;;;;;;;5.57;2.97;;;;;;;5.25;84.26;101595.31;5013628;28;20093;-75
2021/10/01 01:55:44;;;;;;;5.50;3.05;;;;;;;5.23;84.45;101599.59;5033479;28;20081;-75
2021/10/01 01:58:10;;;;;;;6.82;3.42;;;;;;;5.24;84.35;101600.50;5000997;28;20037;-75
2021/10/01 02:00:54;;;;;;;5.63;3.13;;;;;;;5.25;84.99;101600.53;5000396;28;20109;-75
2021/10/01 02:03:20;;;;;;;7.35;3.75;;;;;;;5.25;85.11;101595.31;5015153;28;20440;-76
2021/10/01 02:05:59;;;;;;;6.60;3.70;;;;;;;5.23;85.01;101596.09;5002472;28;20046;-76
2021/10/01 02:08:25;;;;;;;6.18;3.47;;;;;;;5.21;85.08;101592.53;5002276;28;20041;-76
2021/10/01 02:10:52;;;;;;;5.05;3.67;;;;;;;5.21;84.84;101596.06;5000015;28;20026;-76
2021/10/01 02:13:19;;;;;;;7.00;3.55;;;;;;;5.22;84.98;101595.22;5004440;28;20026;-75
2021/10/01 02:15:54;;;;;;;6.70;3.57;;;;;;;5.21;85.21;101593.44;5002789;28;20399;-76
2021/10/01 02:18:23;;;;;;;8.88;4.03;;;;;;;5.21;84.95;101582.06;5016751;28;20289;-75
2021/10/01 02:20:52;;;;;;;6.78;3.28;;;;;;;5.19;84.74;101584.66;5033514;28;20035;-75
2021/10/01 02:23:17;;;;;;;5.20;3.53;;;;;;;5.16;84.45;101591.50;5002515;28;20034;-75
2021/10/01 02:28:39;;;;;;;5.45;3.10;;;;;;;5.13;85.35;101584.44;5007755;28;20068;-75
2021/10/01 02:31:15;;;;;;;8.02;3.92;;;;;;;5.13;85.03;101581.81;5004217;28;20604;-76
2021/10/01 02:33:44;;;;;;;6.28;3.50;;;;;;;5.10;84.80;101579.09;5000445;28;20034;-75
2021/10/01 02:36:10;;;;;;;5.13;3.05;;;;;;;5.11;84.73;101579.97;5013320;28;20041;-75
2021/10/01 02:38:41;;;;;;;5.53;3.80;;;;;;;5.08;84.86;101587.75;5033497;28;20054;-76
2021/10/01 02:41:06;;;;;;;6.68;3.33;;;;;;;5.04;85.15;101578.91;5000047;28;20179;-75
2021/10/01 02:43:32;;;;;;;6.72;3.20;;;;;;;4.95;85.05;101578.59;5000600;28;20113;-76
2021/10/01 02:45:58;;;;;;;4.72;3.15;;;;;;;4.94;85.22;101576.81;5000729;28;20503;-76
2021/10/01 02:48:23;;;;;;;5.85;3.13;;;;;;;4.97;85.48;101576.91;5012275;28;20400;-76
2021/10/01 02:50:51;;;;;;;4.70;3.00;;;;;;;4.98;85.06;101582.22;5006633;28;20033;-76
2021/10/01 02:53:23;;;;;;;5.55;2.97;;;;;;;4.94;84.87;101571.59;5002435;28;20034;-76
2021/10/01 02:56:05;;;;;;;5.40;2.80;;;;;;;4.93;84.84;101567.22;5000034;28;20030;-76
2021/10/01 02:58:37;;;;;;;6.78;3.10;;;;;;;4.94;84.84;101566.34;5017643;28;20056;-76
2021/10/01 03:01:05;;;;;;;4.88;2.83;;;;;;;4.94;84.87;101571.59;5007708;28;20026;-76
2021/10/01 03:03:36;;;;;;;6.03;3.58;;;;;;;4.90;85.23;101569.69;5038396;28;20042;-76
2021/10/01 03:06:03;;;;;;;5.65;3.10;;;;;;;4.90;85.20;101569.69;5003450;28;20038;-76
2021/10/01 03:08:30;;;;;;;5.40;3.15;;;;;;;4.83;85.48;101574.72;5002012;28;20042;-76
2021/10/01 03:10:57;;;;;;;5.03;2.80;;;;;;;4.81;85.53;101570.28;5038454;28;20058;-76
2021/10/01 03:13:24;;;;;;;7.13;3.50;;;;;;;4.80;86.06;101565.91;5003154;28;20042;-75
2021/10/01 03:15:53;;;;;;;6.10;2.78;;;;;;;4.83;85.48;101566.88;5018398;28;20121;-76
2021/10/01 03:18:19;;;;;;;6.32;3.92;;;;;;;4.84;85.59;101571.25;5005457;28;20522;-76
2021/10/01 03:20:47;;;;;;;4.50;2.60;;;;;;;4.83;85.15;101566.00;5001896;28;20034;-76
2021/10/01 03:23:18;;;;;;;6.82;4.00;;;;;;;4.83;85.44;101572.13;5017650;28;20030;-75
2021/10/01 03:25:44;;;;;;;6.43;2.85;;;;;;;4.80;85.33;101561.56;5008400;28;20037;-75
2021/10/01 03:28:10;;;;;;;6.47;3.67;;;;;;;4.84;85.38;101566.03;5006346;28;20081;-75
2021/10/01 03:30:36;;;;;;;5.15;2.85;;;;;;;4.86;85.08;101560.00;5013229;28;20092;-76
2021/10/01 03:33:02;;;;;;;6.55;3.00;;;;;;;4.81;84.72;101560.69;5007019;28;20146;-75
2021/10/01 03:35:29;;;;;;;6.18;3.10;;;;;;;4.79;84.72;101559.78;5024972;28;20029;-75
2021/10/01 03:37:56;;;;;;;6.53;3.95;;;;;;;4.80;84.79;101560.66;5004310;28;20037;-75
2021/10/01 03:40:30;;;;;;;5.57;3.20;;;;;;;4.78;85.18;101558.00;5019758;28;20109;-75
2021/10/01 03:42:56;;;;;;;5.32;3.42;;;;;;;4.78;85.38;101558.00;5009761;28;20057;-75
2021/10/01 03:45:22;;;;;;;4.47;2.97;;;;;;;4.78;85.17;101554.50;5002168;28;20420;-75
2021/10/01 03:47:48;;;;;;;6.07;2.67;;;;;;;4.77;85.14;101550.13;5035913;28;20062;-75
2021/10/01 03:50:14;;;;;;;5.75;2.55;;;;;;;4.74;84.76;101550.91;5023969;28;20041;-75
2021/10/01 03:52:39;;;;;;;5.18;2.78;;;;;;;4.72;84.42;101544.72;5010628;28;20092;-76
2021/10/01 03:55:06;;;;;;;5.07;2.63;;;;;;;4.70;84.45;101545.50;5005595;28;20508;-75
2021/10/01 03:57:32;;;;;;;5.10;2.70;;;;;;;4.69;84.70;101547.25;5021192;28;20134;-76
2021/10/01 03:59:57;;;;;;;4.35;2.70;;;;;;;4.69;84.89;101542.00;5040518;28;20113;-75
2021/10/01 04:02:22;;;;;;;4.20;2.65;;;;;;;4.71;84.53;101537.69;5014893;28;20026;-75
2021/10/01 04:04:48;;;;;;;7.05;3.13;;;;;;;4.75;84.56;101542.19;5034223;28;20492;-75
2021/10/01 04:07:13;;;;;;;5.93;2.83;;;;;;;4.74;84.99;101529.97;5004655;28;20072;-75
2021/10/01 04:09:39;;;;;;;5.60;3.10;;;;;;;4.78;84.92;101528.34;5017983;28;20081;-76
2021/10/01 04:12:04;;;;;;;5.35;2.78;;;;;;;4.75;84.26;101523.91;5018012;28;20038;-75
2021/10/01 04:14:33;;;;;;;5.32;3.10;;;;;;;4.72;84.22;101518.56;5004198;28;20068;-76
2021/10/01 04:16:58;;;;;;;4.93;2.60;;;;;;;4.72;84.63;101526.41;5001426;28;20034;-76
2021/10/01 04:19:24;;;;;;;6.25;3.67;;;;;;;4.67;84.10;101529.72;5016570;28;20030;-76
2021/10/01 04:21:49;;;;;;;9.73;3.40;;;;;;;4.62;84.15;101526.94;5036044;28;20525;-75
2021/10/01 04:24:16;;;;;;;5.53;3.03;;;;;;;4.65;84.46;101519.19;5001889;28;20042;-76
2021/10/01 04:26:51;;;;;;;6.43;2.47;;;;;;;4.69;84.70;101517.56;5017076;28;20440;-76
2021/10/01 04:29:17;;;;;;;7.10;3.63;;;;;;;4.70;84.93;101509.78;5036409;28;20026;-75
2021/10/01 04:31:42;;;;;;;12.05;7.60;;;;;;;4.72;84.77;101510.72;5002784;28;20029;-75
2021/10/01 04:34:08;;;;;;;7.47;4.53;;;;;;;4.74;85.29;101506.44;5003740;28;20038;-75
2021/10/01 04:36:34;;;;;;;7.13;3.33;;;;;;;4.80;85.17;101506.63;5002210;28;20041;-76
2021/10/01 04:39:01;;;;;;;5.32;3.10;;;;;;;4.86;85.00;101510.28;5015152;28;20501;-76
2021/10/01 04:41:28;;;;;;;6.20;3.00;;;;;;;4.87;85.25;101512.06;5003904;28;20039;-76
2021/10/01 04:43:55;;;;;;;5.50;2.63;;;;;;;4.90;84.56;101504.31;5002440;28;20091;-76
2021/10/01 04:46:32;;;;;;;5.70;2.95;;;;;;;4.86;84.90;101502.44;5018433;28;20029;-76
2021/10/01 04:48:57;;;;;;;4.88;2.95;;;;;;;4.83;85.16;101504.09;5001478;28;20408;-76
2021/10/01 04:51:26;;;;;;;8.00;3.15;;;;;;;4.83;84.98;101506.72;5015969;28;20046;-76
2021/10/01 04:53:53;;;;;;;5.85;2.72;;;;;;;4.83;84.87;101501.50;5011003;28;20404;-76
2021/10/01 04:56:20;;;;;;;6.65;2.58;;;;;;;4.87;84.72;101501.59;5001524;28;20128;-76
2021/10/01 04:58:46;;;;;;;5.38;2.88;;;;;;;4.90;85.16;101501.69;5015310;28;20485;-76
2021/10/01 05:01:40;;;;;;;5.47;2.85;;;;;;;4.92;84.81;101505.25;5002468;28;20031;-76
2021/10/01 05:04:40;;;;;;;8.13;4.00;;;;;;;4.95;84.85;101506.25;5002795;28;20046;-76
2021/10/01 05:07:21;;;;;;;9.10;3.75;;;;;;;4.96;84.41;101508.00;5000032;28;20034;-76
2021/10/01 05:10:06;;;;;;;5.75;3.67;;;;;;;4.92;84.61;101500.00;5002870;28;20096;-77
2021/10/01 05:12:50;;;;;;;6.20;2.90;;;;;;;4.93;84.66;101510.53;5001152;28;20120;-77
2021/10/01 05:15:35;;;;;;;5.70;3.17;;;;;;;4.97;84.54;101506.28;5002677;28;20149;-76
2021/10/01 05:18:38;;;;;;;9.75;4.68;;;;;;;4.98;84.37;101502.84;5025852;28;20049;-76
2021/10/01 05:21:29;;;;;;;5.53;3.15;;;;;;;4.98;84.24;101498.50;5021592;28;20049;-76
2021/10/01 05:23:59;;;;;;;7.30;4.25;;;;;;;5.00;84.36;101503.75;5001551;28;20053;-76
2021/10/01 05:26:24;;;;;;;6.03;3.80;;;;;;;5.02;84.19;101507.31;5002744;28;20038;-76
2021/10/01 05:28:49;;;;;;;8.02;3.63;;;;;;;5.05;84.66;101502.19;5001389;28;20050;-76
2021/10/01 05:31:15;;;;;;;6.97;4.43;;;;;;;5.09;84.19;101504.06;5013920;28;20488;-75
2021/10/01 05:33:40;;;;;;;7.28;3.92;;;;;;;5.14;84.71;101506.84;5001456;28;20030;-76
2021/10/01 05:36:06;;;;;;;5.97;3.42;;;;;;;5.17;84.53;101506.94;5005306;28;20396;-76
2021/10/01 05:38:31;;;;;;;6.00;3.63;;;;;;;5.22;84.39;101501.00;5003860;28;20480;-76
2021/10/01 05:40:57;;;;;;;4.97;3.30;;;;;;;5.30;84.61;101509.09;5012258;28;20089;-76
2021/10/01 05:43:25;;;;;;;6.85;3.10;;;;;;;5.38;84.32;101507.59;5031904;28;20038;-76
2021/10/01 05:45:54;;;;;;;6.53;3.25;;;;;;;5.45;84.40;101504.31;5015680;28;20037;-76
2021/10/01 05:48:29;;;;;;;6.90;3.20;;;;;;;5.50;83.88;101493.97;5001230;28;20046;-76
2021/10/01 05:51:13;;;;;;;4.68;3.17;;;;;;;5.60;83.79;101498.63;5001162;28;20083;-76
2021/10/01 05:56:55;;;;;;;7.35;3.45;;;;;;;5.79;83.93;101496.56;5001456;28;20049;-76
2021/10/01 05:59:50;;;;;;;4.93;3.00;;;;;;;5.88;83.65;101488.97;4999257;28;20034;-76
2021/10/01 06:02:18;;;;;;;7.20;3.10;;;;;;;5.97;83.81;101494.47;5001779;28;20048;-76
2021/10/01 06:04:46;;;;;;;8.95;3.63;;;;;;;6.03;83.77;101492.06;5012610;28;20038;-76
2021/10/01 06:07:12;;;;;;;10.50;2.88;;;;;;;6.09;83.43;101484.34;5003050;28;20050;-76
2021/10/01 06:09:42;;;;;;;8.35;3.42;;;;;;;6.19;83.28;101495.09;5007347;28;20489;-76
2021/10/01 06:12:08;;;;;;;10.07;3.08;;;;;;;6.27;83.81;101490.94;5007212;28;20036;-76
2021/10/01 06:14:34;;;;;;;6.65;2.50;;;;;;;6.38;83.68;101491.22;5006951;28;20042;-76
2021/10/01 06:16:59;;;;;;;7.50;3.10;;;;;;;6.52;83.62;101490.75;5008491;28;20041;-76
2021/10/01 06:19:25;;;;;;;7.25;3.30;;;;;;;6.68;83.16;101491.13;5020928;28;20089;-76
2021/10/01 06:21:52;;;;;;;5.68;2.70;;;;;;;6.83;82.57;101488.00;5008998;28;20626;-76
2021/10/01 06:24:18;;;;;;;6.22;2.65;;;;;;;6.96;82.82;101493.56;5002342;28;20048;-76
2021/10/01 06:26:44;;;;;;;9.60;2.78;;;;;;;7.08;82.57;101486.84;5003026;28;20038;-76
2021/10/01 06:29:09;;;;;;;4.78;2.50;;;;;;;7.22;82.29;101486.31;5000614;28;20045;-76
2021/10/01 06:31:35;;;;;;;3.95;2.00;;;;;;;7.38;81.63;101481.41;5014150;28;20407;-75
2021/10/01 06:34:00;;;;;;;5.32;2.53;;;;;;;7.51;81.45;101487.81;5001181;28;20486;-76
2021/10/01 06:36:26;;;;;;;5.10;2.60;;;;;;;7.64;81.33;101480.22;5001553;28;20048;-76
2021/10/01 06:38:52;;;;;;;4.68;2.28;;;;;;;7.80;80.97;101484.03;5001261;28;20110;-76
2021/10/01 06:41:19;;;;;;;15.38;5.82;;;;;;;7.96;81.00;101482.59;5002039;28;20448;-76
2021/10/01 06:43:45;;;;;;;7.80;5.07;;;;;;;8.15;80.54;101491.75;5000445;28;20406;-76
2021/10/01 06:46:58;;;;;;;7.93;4.07;;;;;;;8.31;80.29;101478.03;5002581;28;20042;-76
2021/10/01 07:24:11;;;;;;;3.60;1.50;;;;;;;10.38;75.82;101459.00;5021537;28;20042;-81
2021/10/01 07:34:34;;;;;;;4.20;1.75;;;;;;;10.77;72.37;101462.88;5016589;28;20069;-81
2021/10/01 08:21:12;;;;;;;5.00;0.93;;;;;;;13.19;61.74;101415.00;5013870;28;20127;-77
2021/10/01 08:23:38;;;;;;;3.80;1.48;;;;;;;13.30;61.96;101412.34;5013081;28;20077;-82
2021/10/01 08:26:04;;;;;;;3.63;1.38;;;;;;;13.41;61.56;101415.84;5008029;28;20060;-80
2021/10/01 08:28:29;;;;;;;7.63;2.08;;;;;;;13.49;61.19;101419.38;5005258;28;20484;-79
2021/10/01 08:31:14;;;;;;;4.70;1.40;;;;;;;13.56;61.31;101418.44;5025501;28;20033;-82
2021/10/01 08:33:39;;;;;;;3.70;1.20;;;;;;;13.65;60.95;101413.97;5010511;28;20037;-80
2021/10/01 08:36:04;;;;;;;4.30;1.02;;;;;;;13.75;61.12;101410.38;5007542;28;20125;-81
2021/10/01 08:38:30;;;;;;;3.88;1.40;;;;;;;13.86;60.53;101412.97;5009421;28;20085;-82
2021/10/01 08:40:55;;;;;;;4.78;2.05;;;;;;;13.91;59.96;101412.09;5010022;28;20082;-81
2021/10/01 08:43:23;;;;;;;3.30;1.10;;;;;;;14.01;59.71;101420.84;5014382;28;20038;-80
2021/10/01 08:45:48;;;;;;;2.95;1.27;;;;;;;14.12;59.17;101415.47;5015662;28;20088;-80
2021/10/01 08:48:14;;;;;;;4.25;1.08;;;;;;;14.18;58.67;101407.47;5016526;28;20045;-81
2021/10/01 08:50:40;;;;;;;4.90;1.10;;;;;;;14.24;58.28;101402.13;5015004;28;20385;-80
2021/10/01 08:53:09;;;;;;;3.53;1.10;;;;;;;14.33;58.35;101403.81;5013882;28;20204;-80
2021/10/01 08:55:36;;;;;;;2.65;1.08;;;;;;;14.41;57.98;101396.69;5015194;28;20045;-80
2021/10/01 08:58:02;;;;;;;3.65;1.20;;;;;;;14.44;55.94;101394.00;5016413;28;20038;-81
2021/10/01 09:00:27;;;;;;;5.53;1.27;;;;;;;14.45;56.32;101393.97;5016835;28;20039;-77
2021/10/01 09:02:53;;;;;;;3.88;1.00;;;;;;;14.61;57.24;101386.78;5006240;28;20049;-76
2021/10/01 09:05:18;;;;;;;4.30;1.15;;;;;;;14.74;56.80;101384.03;5029015;28;20036;-79
2021/10/01 09:07:44;;;;;;;3.58;1.20;;;;;;;14.82;56.35;101377.72;5012625;28;20043;-78
2021/10/01 09:10:12;;;;;;;5.40;1.45;;;;;;;14.94;55.71;101376.72;5009425;28;20532;-79
2021/10/01 09:12:38;;;;;;;2.75;0.98;;;;;;;15.03;55.74;101370.44;5008776;28;20455;-77
2021/10/01 09:15:06;;;;;;;2.88;1.02;;;;;;;15.13;55.35;101364.09;5007858;28;20030;-80
2021/10/01 09:17:34;;;;;;;5.28;2.97;;;;;;;15.15;54.56;101364.09;5005076;28;20492;-77
2021/10/01 09:20:00;;;;;;;5.00;1.80;;;;;;;15.26;54.88;101363.06;5017004;28;20058;-79
2021/10/01 09:22:36;;;;;;;3.75;1.00;;;;;;;15.38;53.71;101363.78;5018075;28;20053;-79
2021/10/01 09:25:20;;;;;;;4.90;1.20;;;;;;;15.49;53.16;101356.59;5027701;28;20056;-79
2021/10/01 09:28:02;;;;;;;3.65;1.00;;;;;;;15.54;53.40;101355.63;5017664;28;20057;-79
2021/10/01 09:30:27;;;;;;;2.28;0.85;;;;;;;15.54;51.76;101355.63;5017126;28;20038;-79
2021/10/01 09:33:11;;;;;;;5.10;1.30;;;;;;;15.60;51.15;101351.13;5020962;28;20052;-79
2021/10/01 09:35:37;;;;;;;2.53;1.00;;;;;;;15.62;51.10;101347.53;5032366;28;20032;-79
2021/10/01 09:38:08;;;;;;;4.65;1.02;;;;;;;15.77;51.32;101344.69;5019008;28;20081;-79
2021/10/01 09:40:34;;;;;;;3.67;0.90;;;;;;;15.92;52.10;101346.22;5016985;28;20033;-80
2021/10/01 09:42:59;;;;;;;3.90;0.93;;;;;;;16.07;51.55;101336.25;5017173;28;20045;-79
2021/10/01 09:45:25;;;;;;;3.08;1.00;;;;;;;16.13;50.90;101337.00;5022973;28;20034;-80
2021/10/01 09:47:50;;;;;;;3.97;1.05;;;;;;;16.20;50.35;101337.81;5018767;28;20042;-79
2021/10/01 09:50:27;;;;;;;2.22;0.70;;;;;;;16.37;50.36;101337.50;5019467;28;20033;-79
2021/10/01 09:52:58;;;;;;;3.70;1.05;;;;;;;16.51;50.23;101329.28;5020505;28;20089;-80
2021/10/01 09:55:35;;;;;;;4.60;1.70;;;;;;;16.61;50.00;101331.75;5018237;28;20053;-79
2021/10/01 09:58:09;;;;;;;3.72;1.17;;;;;;;16.74;50.23;101326.19;5033301;28;20065;-79
2021/10/01 10:00:45;;;;;;;4.50;1.60;;;;;;;16.83;49.58;101318.94;5020196;28;20064;-79
2021/10/01 10:03:23;;;;;;;4.30;1.70;;;;;;;16.84;48.57;101310.00;5051755;28;20034;-80
2021/10/01 10:05:56;;;;;;;5.30;1.40;;;;;;;16.93;48.77;101310.75;5017620;28;20038;-79
2021/10/01 10:08:30;;;;;;;4.38;1.00;;;;;;;16.99;48.58;101315.97;5016503;28;20042;-79
2021/10/01 10:10:58;;;;;;;4.75;1.35;;;;;;;17.00;47.23;101307.94;5019622;28;20044;-79
2021/10/01 10:13:43;;;;;;;4.80;1.23;;;;;;;16.99;46.74;101311.50;5029280;28;20049;-79
2021/10/01 10:16:11;;;;;;;4.63;2.33;;;;;;;17.07;46.62;101306.00;5019839;28;20034;-79
2021/10/01 10:18:37;;;;;;;8.20;2.97;;;;;;;17.20;47.19;101302.16;5017624;28;20045;-80
2021/10/01 10:21:03;;;;;;;4.88;2.22;;;;;;;17.30;48.00;101298.41;5019701;28;20041;-80
2021/10/01 10:23:28;;;;;;;3.47;1.20;;;;;;;17.34;47.50;101296.53;5018673;28;20082;-80
2021/10/01 10:25:53;;;;;;;7.68;3.30;;;;;;;17.35;47.19;101295.63;5018857;28;20042;-79
2021/10/01 10:28:19;;;;;;;7.78;3.95;;;;;;;17.41;46.37;101295.50;5017806;28;20037;-79
2021/10/01 10:30:48;;;;;;;4.15;2.10;;;;;;;17.58;47.24;101292.47;5018220;28;20081;-79
2021/10/01 10:33:39;;;;;;;3.35;1.05;;;;;;;17.65;46.26;101291.38;5018315;28;20052;-79
2021/10/01 10:36:36;;;;;;;3.27;1.10;;;;;;;17.77;46.24;101279.53;5017529;28;20044;-79
2021/10/01 10:39:10;;;;;;;4.95;1.17;;;;;;;17.85;46.09;101269.59;5016772;28;20078;-80
2021/10/01 10:41:40;;;;;;;2.92;0.90;;;;;;;17.91;45.86;101274.75;5016419;28;20095;-79
2021/10/01 10:44:07;;;;;;;2.85;1.10;;;;;;;17.99;45.72;101271.03;5016832;28;20099;-79
2021/10/01 10:46:35;;;;;;;4.13;0.88;;;;;;;17.84;44.09;101267.84;5016242;28;20032;-79
2021/10/01 10:49:22;;;;;;;7.63;1.88;;;;;;;17.88;43.40;101265.97;5030335;28;20042;-79
2021/10/01 10:52:16;;;;;;;14.88;3.42;;;;;;;18.02;43.08;101257.59;5014147;28;20034;-80
2021/10/01 10:54:44;;;;;;;6.28;0.88;;;;;;;18.10;44.11;101250.25;5014616;28;20073;-79
2021/10/01 10:59:48;;;;;;;3.00;0.93;;;;;;;18.31;43.86;101246.16;5016089;28;20079;-79
2021/10/01 11:02:30;;;;;;;3.75;1.00;;;;;;;18.40;44.18;101246.78;5017517;28;20038;-79
2021/10/01 11:05:17;;;;;;;4.40;0.82;;;;;;;18.51;43.82;101248.28;5017260;28;20046;-80
2021/10/01 11:07:56;;;;;;;4.07;1.10;;;;;;;18.60;44.50;101237.31;5017620;28;20049;-79
2021/10/01 11:10:57;;;;;;;3.22;0.85;;;;;;;18.69;42.71;101228.19;5017131;28;20027;-80
2021/10/01 11:13:24;;;;;;;3.15;1.10;;;;;;;18.66;42.74;101231.81;4959339;29;20047;-80
2021/10/01 11:16:11;;;;;;;4.82;1.45;;;;;;;18.72;42.53;101217.41;4999103;28;20050;-79
2021/10/01 11:18:58;;;;;;;3.55;0.70;;;;;;;18.79;41.97;101216.34;5032434;28;20069;-80
2021/10/01 11:21:26;;;;;;;4.25;1.20;;;;;;;18.83;41.93;101216.19;5026440;28;20065;-80
2021/10/01 11:23:58;;;;;;;5.20;1.20;;;;;;;18.97;42.58;101212.25;5032464;28;20030;-80
2021/10/01 11:26:32;;;;;;;5.03;1.20;;;;;;;19.10;41.29;101208.28;5019923;28;20031;-80
2021/10/01 11:28:59;;;;;;;3.17;1.10;;;;;;;19.31;42.10;101203.16;5020010;28;20036;-80
2021/10/01 11:31:36;;;;;;;5.53;1.30;;;;;;;19.45;40.41;101195.56;5020876;28;20092;-80
2021/10/01 11:34:01;;;;;;;6.78;1.48;;;;;;;19.64;41.13;101196.72;5020897;28;20081;-80
2021/10/01 11:36:27;;;;;;;3.03;0.77;;;;;;;19.79;40.59;101192.69;5022500;28;20053;-80
2021/10/01 11:39:11;;;;;;;3.33;1.15;;;;;;;20.07;40.80;101175.66;5019109;28;20049;-80
2021/10/01 11:41:45;;;;;;;3.75;1.05;;;;;;;20.19;39.66;101177.03;5017999;28;20099;-80
2021/10/01 11:44:13;;;;;;;2.65;1.08;;;;;;;20.27;40.30;101181.16;5021183;28;20120;-80
2021/10/01 11:46:47;;;;;;;4.03;1.20;;;;;;;20.50;38.92;101183.00;5014367;28;20136;-79
2021/10/01 11:49:18;;;;;;;3.95;1.02;;;;;;;20.38;38.30;101167.38;5021278;28;20042;-79
2021/10/01 11:52:05;;;;;;;5.40;1.63;;;;;;;20.49;37.39;101158.97;5022240;28;20029;-80
2021/10/01 11:54:31;;;;;;;5.25;1.23;;;;;;;20.61;37.55;101154.94;5017522;28;20401;-80
2021/10/01 11:57:06;;;;;;;8.48;2.30;;;;;;;20.67;37.01;101160.06;5022072;28;20073;-80
2021/10/01 12:00:01;;;;;;;5.07;1.50;;;;;;;20.72;36.73;101155.41;5019668;28;20452;-79
2021/10/01 12:02:44;;;;;;;7.35;1.38;;;;;;;20.99;37.71;101148.97;5021897;28;20038;-80
2021/10/01 12:05:33;;;;;;;5.55;2.30;;;;;;;21.25;36.20;101139.00;5022183;28;20030;-80
2021/10/01 12:08:04;;;;;;;4.68;1.40;;;;;;;21.34;36.09;101143.13;5035825;28;20049;-80
2021/10/01 12:10:32;;;;;;;6.38;1.38;;;;;;;21.63;36.24;101134.75;5019062;28;20057;-79
2021/10/01 12:13:22;;;;;;;2.55;1.00;;;;;;;21.84;35.33;101132.06;5032127;28;20038;-80
2021/10/01 12:15:51;;;;;;;4.55;1.38;;;;;;;21.95;35.20;101124.41;5018585;28;20041;-80
2021/10/01 12:18:38;;;;;;;12.00;2.92;;;;;;;22.13;35.42;101117.34;5019403;28;20118;-80
2021/10/01 12:21:15;;;;;;;5.85;1.88;;;;;;;22.35;33.70;101108.31;5017709;28;20097;-79
2021/10/01 12:23:45;;;;;;;3.17;1.55;;;;;;;22.53;34.22;101115.53;5020090;28;20118;-79
2021/10/01 12:26:31;;;;;;;6.03;2.05;;;;;;;22.82;34.56;101107.91;5023558;28;20033;-80
2021/10/01 12:29:17;;;;;;;6.95;2.38;;;;;;;23.07;34.10;101100.41;5018773;28;20049;-79
2021/10/01 12:31:48;;;;;;;5.40;1.52;;;;;;;23.25;32.73;101092.38;5019037;28;20096;-80
2021/10/01 12:34:20;;;;;;;3.38;1.15;;;;;;;23.42;32.91;101087.00;5019265;28;20039;-79
2021/10/01 12:36:49;;;;;;;9.50;2.45;;;;;;;23.46;32.79;101091.31;5034307;28;20038;-79
2021/10/01 12:39:15;;;;;;;7.45;1.98;;;;;;;23.75;32.30;101080.88;5023019;28;20068;-80
2021/10/01 12:41:40;;;;;;;6.63;1.73;;;;;;;23.98;32.69;101082.34;5018538;28;20031;-79
2021/10/01 12:44:11;;;;;;;4.05;1.30;;;;;;;23.84;31.37;101077.69;5021607;28;20084;-80
2021/10/01 12:46:45;;;;;;;2.33;0.88;;;;;;;23.72;30.69;101070.25;5017588;28;20030;-80
2021/10/01 12:49:25;;;;;;;7.40;1.95;;;;;;;23.84;30.19;101069.59;5019134;28;20050;-80
2021/10/01 12:52:05;;;;;;;2.35;0.88;;;;;;;23.93;29.69;101066.41;5019553;28;20038;-80
2021/10/01 12:54:32;;;;;;;4.20;1.13;;;;;;;24.16;31.39;101065.19;5021630;28;20045;-80
2021/10/01 12:57:14;;;;;;;6.18;1.40;;;;;;;24.08;29.22;101059.34;5017996;28;20035;-80
2021/10/01 12:59:49;;;;;;;5.25;1.30;;;;;;;24.29;28.66;101060.00;5019807;28;20049;-79
2021/10/01 13:02:40;;;;;;;1.88;0.80;;;;;;;24.35;28.43;101054.25;5018746;28;20044;-80
2021/10/01 13:05:26;;;;;;;2.42;1.00;;;;;;;24.47;28.16;101042.81;5018910;28;20412;-80
2021/10/01 13:08:17;;;;;;;3.17;1.23;;;;;;;24.98;29.41;101036.34;5018261;28;20053;-80
2021/10/01 13:10:51;;;;;;;2.42;1.00;;;;;;;25.25;29.40;101040.13;5022280;28;20030;-80
2021/10/01 13:13:22;;;;;;;4.75;1.25;;;;;;;25.40;28.39;101038.34;5021851;28;20094;-80
2021/10/01 13:15:48;;;;;;;3.63;1.08;;;;;;;25.64;28.01;101033.28;5018402;28;20053;-80
2021/10/01 13:18:20;;;;;;;3.50;1.27;;;;;;;25.71;26.36;101031.09;5017672;28;20069;-80
2021/10/01 13:21:10;;;;;;;3.88;1.15;;;;;;;25.88;25.71;101038.19;5016584;28;20053;-80
2021/10/01 13:23:39;;;;;;;2.50;1.05;;;;;;;26.14;26.40;101033.84;5015583;28;20097;-80
2021/10/01 13:26:26;;;;;;;2.60;1.08;;;;;;;26.19;24.65;101027.16;5032435;28;20121;-80
2021/10/01 13:29:03;;;;;;;2.60;1.00;;;;;;;26.22;25.68;101024.25;5018954;28;20065;-81